createdAt,value
2019-03-30T00:00:52.637Z,5.63
2019-03-30T00:03:19.259Z,5.62
2019-03-30T00:05:46.005Z,5.64
2019-03-30T00:08:12.745Z,5.62
2019-03-30T00:10:40.613Z,5.57
2019-03-30T00:13:07.271Z,5.52
2019-03-30T00:15:33.958Z,5.51
2019-03-30T00:18:00.584Z,5.50
2019-03-30T00:20:27.365Z,5.45
2019-03-30T00:22:54.107Z,5.40
2019-03-30T00:25:20.845Z,5.33
2019-03-30T00:27:47.598Z,5.30
2019-03-30T00:30:14.292Z,5.28
2019-03-30T00:32:41.018Z,5.33
2019-03-30T00:35:07.750Z,5.27
2019-03-30T00:37:34.487Z,5.27
2019-03-30T00:40:01.111Z,5.18
2019-03-30T00:42:28.783Z,5.18
2019-03-30T00:44:55.482Z,5.15
2019-03-30T00:47:22.105Z,5.16
2019-03-30T00:49:50.218Z,5.25
2019-03-30T00:52:17.135Z,5.12
2019-03-30T00:54:43.756Z,5.11
2019-03-30T00:57:10.495Z,4.97
2019-03-30T00:59:37.188Z,4.95
2019-03-30T01:02:03.839Z,4.92
2019-03-30T01:04:30.563Z,4.92
2019-03-30T01:06:57.262Z,4.84
2019-03-30T01:09:23.995Z,4.79
2019-03-30T01:11:50.836Z,4.79
2019-03-30T01:14:17.674Z,4.70
2019-03-30T01:16:44.319Z,4.64
2019-03-30T01:19:11.054Z,4.69
2019-03-30T01:21:38.305Z,4.69
2019-03-30T01:24:05.041Z,4.65
2019-03-30T01:26:31.782Z,4.57
2019-03-30T01:28:58.620Z,4.53
2019-03-30T01:31:26.484Z,4.55
2019-03-30T01:33:53.224Z,4.52
2019-03-30T01:36:19.971Z,4.50
2019-03-30T01:38:46.602Z,4.51
2019-03-30T01:41:13.369Z,4.46
2019-03-30T01:43:40.046Z,4.46
2019-03-30T01:46:06.654Z,4.42
2019-03-30T01:48:33.358Z,4.37
2019-03-30T01:51:00.190Z,4.32
2019-03-30T01:53:26.836Z,4.35
2019-03-30T01:55:53.468Z,4.31
2019-03-30T01:58:20.157Z,4.23
2019-03-30T02:00:46.756Z,4.18
2019-03-30T02:03:13.382Z,4.21
2019-03-30T02:05:40.073Z,4.16
2019-03-30T02:08:06.749Z,4.11
2019-03-30T02:10:39.854Z,4.13
2019-03-30T02:13:07.512Z,4.10
2019-03-30T02:15:34.227Z,4.09
2019-03-30T02:18:00.921Z,4.11
2019-03-30T02:20:36.900Z,4.12
2019-03-30T02:23:03.487Z,4.11
2019-03-30T02:25:30.217Z,4.06
2019-03-30T02:27:56.955Z,4.02
2019-03-30T02:30:24.314Z,4.00
2019-03-30T02:32:51.060Z,3.93
2019-03-30T02:35:17.787Z,3.96
2019-03-30T02:37:44.431Z,3.90
2019-03-30T02:40:11.164Z,3.86
2019-03-30T02:42:37.913Z,3.84
2019-03-30T02:45:05.540Z,3.84
2019-03-30T02:47:33.540Z,3.79
2019-03-30T02:50:00.579Z,3.73
2019-03-30T02:52:27.334Z,3.69
2019-03-30T02:54:54.033Z,3.65
2019-03-30T02:57:20.762Z,3.68
2019-03-30T02:59:47.501Z,3.69
2019-03-30T03:02:14.285Z,3.65
2019-03-30T03:04:41.013Z,3.65
2019-03-30T03:07:07.610Z,3.56
2019-03-30T03:09:34.257Z,3.62
2019-03-30T03:12:01.024Z,3.60
2019-03-30T03:14:27.898Z,3.56
2019-03-30T03:16:54.615Z,3.49
2019-03-30T03:19:21.276Z,3.45
2019-03-30T03:21:47.901Z,3.40
2019-03-30T03:24:14.635Z,3.41
2019-03-30T03:26:41.346Z,3.38
2019-03-30T03:29:08.098Z,3.50
2019-03-30T03:31:34.905Z,3.43
2019-03-30T03:34:01.606Z,3.44
2019-03-30T03:36:28.218Z,3.35
2019-03-30T03:38:54.991Z,3.31
2019-03-30T03:41:21.712Z,3.25
2019-03-30T03:43:48.448Z,3.30
2019-03-30T03:46:15.067Z,3.40
2019-03-30T03:48:41.810Z,3.34
2019-03-30T03:51:24.754Z,3.29
2019-03-30T03:53:38.021Z,3.22
2019-03-30T03:56:04.730Z,3.17
2019-03-30T03:58:33.457Z,3.19
2019-03-30T04:01:01.275Z,3.20
2019-03-30T04:03:31.030Z,3.19
2019-03-30T04:05:58.025Z,3.15
2019-03-30T04:08:27.305Z,3.13
2019-03-30T04:10:55.342Z,3.15
2019-03-30T04:13:25.603Z,3.06
2019-03-30T04:15:52.394Z,3.03
2019-03-30T04:18:19.187Z,2.97
2019-03-30T04:20:45.989Z,3.03
2019-03-30T04:23:12.675Z,3.04
2019-03-30T04:25:39.393Z,3.00
2019-03-30T04:28:06.027Z,3.00
2019-03-30T04:30:32.660Z,2.97
2019-03-30T04:32:59.332Z,2.93
2019-03-30T04:35:26.053Z,2.92
2019-03-30T04:37:52.771Z,2.85
2019-03-30T04:40:19.483Z,2.80
2019-03-30T04:42:46.211Z,2.78
2019-03-30T04:45:12.866Z,2.85
2019-03-30T04:47:39.588Z,2.87
2019-03-30T04:50:06.579Z,2.75
2019-03-30T04:52:33.188Z,2.80
2019-03-30T04:54:59.854Z,2.76
2019-03-30T04:57:26.471Z,2.73
2019-03-30T04:59:53.122Z,2.68
2019-03-30T05:02:19.771Z,2.67
2019-03-30T05:04:46.561Z,2.65
2019-03-30T05:07:13.463Z,2.61
2019-03-30T05:09:40.186Z,2.65
2019-03-30T05:12:06.817Z,2.70
2019-03-30T05:14:33.410Z,2.64
2019-03-30T05:17:00.163Z,2.67
2019-03-30T05:19:26.895Z,2.67
2019-03-30T05:21:53.540Z,2.68
2019-03-30T05:24:20.249Z,2.72
2019-03-30T05:26:46.865Z,2.74
2019-03-30T05:29:13.514Z,2.78
2019-03-30T05:31:41.226Z,2.96
2019-03-30T05:34:07.893Z,3.02
2019-03-30T05:36:34.537Z,3.07
2019-03-30T05:39:01.266Z,3.20
2019-03-30T05:41:29.583Z,3.23
2019-03-30T05:43:56.263Z,3.08
2019-03-30T05:46:22.944Z,3.15
2019-03-30T05:48:49.597Z,3.19
2019-03-30T05:51:16.299Z,3.38
2019-03-30T05:53:42.986Z,3.53
2019-03-30T05:56:09.694Z,3.69
2019-03-30T05:58:36.491Z,3.84
2019-03-30T06:01:03.227Z,3.96
2019-03-30T06:03:29.821Z,4.06
2019-03-30T06:05:56.509Z,4.14
2019-03-30T06:08:23.204Z,4.17
2019-03-30T06:10:49.926Z,4.14
2019-03-30T06:13:16.692Z,4.27
2019-03-30T06:15:43.420Z,4.24
2019-03-30T06:18:11.493Z,4.50
2019-03-30T06:20:38.319Z,4.45
2019-03-30T06:23:05.128Z,4.41
2019-03-30T06:25:31.770Z,4.24
2019-03-30T06:27:58.518Z,4.49
2019-03-30T06:30:26.734Z,4.82
2019-03-30T06:32:53.545Z,5.15
2019-03-30T06:35:20.233Z,5.32
2019-03-30T06:37:46.927Z,5.82
2019-03-30T06:40:14.239Z,5.75
2019-03-30T06:42:40.917Z,5.94
2019-03-30T06:45:07.785Z,5.81
2019-03-30T06:47:34.480Z,6.23
2019-03-30T06:50:01.285Z,6.68
2019-03-30T06:52:28.027Z,6.96
2019-03-30T06:54:54.713Z,7.02
2019-03-30T06:57:21.386Z,7.40
2019-03-30T06:59:48.110Z,7.58
2019-03-30T07:02:15.150Z,7.68
2019-03-30T07:04:41.836Z,8.05
2019-03-30T07:07:09.209Z,8.05
2019-03-30T07:09:37.807Z,8.12
2019-03-30T07:12:05.812Z,8.43
2019-03-30T07:14:36.148Z,8.67
2019-03-30T07:17:02.905Z,8.89
2019-03-30T07:19:32.082Z,9.11
2019-03-30T07:21:58.868Z,9.14
2019-03-30T07:24:25.513Z,9.45
2019-03-30T07:26:52.233Z,9.48
2019-03-30T07:29:18.922Z,9.70
2019-03-30T07:31:45.671Z,9.81
2019-03-30T07:34:12.410Z,9.99
2019-03-30T07:36:39.200Z,10.05
2019-03-30T07:39:05.913Z,10.07
2019-03-30T07:41:32.644Z,10.22
2019-03-30T07:43:59.322Z,10.38
2019-03-30T07:46:26.019Z,10.42
2019-03-30T07:48:52.767Z,10.89
2019-03-30T07:51:19.489Z,11.13
2019-03-30T07:53:46.115Z,11.06
2019-03-30T07:56:12.738Z,11.02
2019-03-30T07:58:39.488Z,11.17
2019-03-30T08:01:06.092Z,11.22
2019-03-30T08:03:32.712Z,11.11
2019-03-30T08:05:59.470Z,11.53
2019-03-30T08:08:26.070Z,11.59
2019-03-30T08:10:52.655Z,11.79
2019-03-30T08:13:19.342Z,12.02
2019-03-30T08:15:45.941Z,12.34
2019-03-30T08:18:12.549Z,12.58
2019-03-30T08:20:39.345Z,12.83
2019-03-30T08:23:05.946Z,12.95
2019-03-30T08:25:32.632Z,12.89
2019-03-30T08:27:59.353Z,12.98
2019-03-30T08:30:26.086Z,13.09
2019-03-30T08:32:52.862Z,13.52
2019-03-30T08:35:20.567Z,13.79
2019-03-30T08:37:47.192Z,13.69
2019-03-30T08:40:13.900Z,13.65
2019-03-30T08:42:40.583Z,13.54
2019-03-30T08:45:07.805Z,13.57
2019-03-30T08:47:34.546Z,13.40
2019-03-30T08:50:01.243Z,13.52
2019-03-30T08:52:27.874Z,13.57
2019-03-30T08:54:54.554Z,13.89
2019-03-30T08:57:22.355Z,14.11
2019-03-30T08:59:49.013Z,14.14
2019-03-30T09:02:15.714Z,14.11
2019-03-30T09:04:42.405Z,14.19
2019-03-30T09:07:09.089Z,14.49
2019-03-30T09:09:35.718Z,14.98
2019-03-30T09:12:02.445Z,15.12
2019-03-30T09:14:29.060Z,15.05
2019-03-30T09:16:55.737Z,15.78
2019-03-30T09:19:22.431Z,15.85
2019-03-30T09:21:49.154Z,16.08
2019-03-30T09:24:15.885Z,16.69
2019-03-30T09:26:42.597Z,17.20
2019-03-30T09:29:09.215Z,17.48
2019-03-30T09:31:36.844Z,17.83
2019-03-30T09:34:03.678Z,17.89
2019-03-30T09:36:30.288Z,17.99
2019-03-30T09:38:56.891Z,17.80
2019-03-30T09:41:23.579Z,17.58
2019-03-30T09:43:50.167Z,17.72
2019-03-30T09:46:16.828Z,17.71
2019-03-30T09:48:44.522Z,18.00
2019-03-30T09:51:11.111Z,18.18
2019-03-30T09:53:37.728Z,18.61
2019-03-30T09:56:04.411Z,18.55
2019-03-30T09:58:31.003Z,18.82
2019-03-30T10:00:57.713Z,18.29
2019-03-30T10:03:24.399Z,18.37
2019-03-30T10:05:51.234Z,18.74
2019-03-30T10:08:17.883Z,19.33
2019-03-30T10:10:44.603Z,19.84
2019-03-30T10:13:11.202Z,20.11
2019-03-30T10:15:38.026Z,20.34
2019-03-30T10:18:04.621Z,20.62
2019-03-30T10:20:31.343Z,20.74
2019-03-30T10:22:57.993Z,20.18
2019-03-30T10:25:24.694Z,20.24
2019-03-30T10:27:51.413Z,20.90
2019-03-30T10:30:18.085Z,21.36
2019-03-30T10:32:44.714Z,21.33
2019-03-30T10:35:11.450Z,21.50
2019-03-30T10:37:38.188Z,21.44
2019-03-30T10:40:08.822Z,21.25
2019-03-30T10:42:35.548Z,20.16
2019-03-30T10:45:03.461Z,19.62
2019-03-30T10:47:30.334Z,19.27
2019-03-30T10:49:57.042Z,19.18
2019-03-30T10:52:23.745Z,19.42
2019-03-30T10:54:53.064Z,19.39
2019-03-30T10:57:19.057Z,19.51
2019-03-30T10:59:45.678Z,19.34
2019-03-30T11:02:13.343Z,19.17
2019-03-30T11:04:40.068Z,19.43
2019-03-30T11:07:06.710Z,19.30
2019-03-30T11:09:33.443Z,19.11
2019-03-30T11:12:00.111Z,19.23
2019-03-30T11:14:26.747Z,20.11
2019-03-30T11:16:53.369Z,19.94
2019-03-30T11:19:20.094Z,19.85
2019-03-30T11:21:46.707Z,20.06
2019-03-30T11:24:13.451Z,19.88
2019-03-30T11:26:40.180Z,20.73
2019-03-30T11:29:06.793Z,21.39
2019-03-30T11:31:33.482Z,21.85
2019-03-30T11:34:00.189Z,22.15
2019-03-30T11:36:26.888Z,22.14
2019-03-30T11:38:53.537Z,22.58
2019-03-30T11:41:20.297Z,22.73
2019-03-30T11:43:46.908Z,22.93
2019-03-30T11:46:13.591Z,23.12
2019-03-30T11:48:40.358Z,23.38
2019-03-30T11:51:07.008Z,23.20
2019-03-30T11:53:33.633Z,22.93
2019-03-30T11:56:00.357Z,23.11
2019-03-30T11:58:26.970Z,23.48
2019-03-30T12:00:53.645Z,23.25
2019-03-30T12:03:20.340Z,23.05
2019-03-30T12:05:46.995Z,22.98
2019-03-30T12:08:13.651Z,22.84
2019-03-30T12:10:40.474Z,22.86
2019-03-30T12:13:07.219Z,23.11
2019-03-30T12:15:33.935Z,23.23
2019-03-30T12:18:00.658Z,23.22
2019-03-30T12:20:27.276Z,22.48
2019-03-30T12:22:53.961Z,22.90
2019-03-30T12:25:34.553Z,23.34
2019-03-30T12:27:50.010Z,23.70
2019-03-30T12:30:16.914Z,23.70
2019-03-30T12:32:43.681Z,23.21
2019-03-30T12:35:10.299Z,23.21
2019-03-30T12:37:37.006Z,23.55
2019-03-30T12:40:05.284Z,23.81
2019-03-30T12:42:31.930Z,24.26
2019-03-30T12:44:58.640Z,24.24
2019-03-30T12:47:25.349Z,24.24
2019-03-30T12:49:52.032Z,24.26
2019-03-30T12:52:18.670Z,24.31
2019-03-30T12:54:45.488Z,24.24
2019-03-30T12:57:12.152Z,24.03
2019-03-30T12:59:38.848Z,23.49
2019-03-30T13:02:05.578Z,23.30
2019-03-30T13:04:32.239Z,23.41
2019-03-30T13:06:58.898Z,23.65
2019-03-30T13:09:25.605Z,23.54
2019-03-30T13:11:52.210Z,23.72
2019-03-30T13:14:18.848Z,23.98
2019-03-30T13:16:45.639Z,23.44
2019-03-30T13:19:12.337Z,22.46
2019-03-30T13:21:52.078Z,22.09
2019-03-30T13:24:07.597Z,21.89
2019-03-30T13:26:34.278Z,22.31
2019-03-30T13:29:00.925Z,22.95
2019-03-30T13:31:27.634Z,23.27
2019-03-30T13:33:54.230Z,23.50
2019-03-30T13:36:22.707Z,23.63
2019-03-30T13:38:49.384Z,23.53
2019-03-30T13:41:16.124Z,23.57
2019-03-30T13:43:42.812Z,23.65
2019-03-30T13:46:09.541Z,23.57
2019-03-30T13:48:37.222Z,23.61
2019-03-30T13:51:03.862Z,23.64
2019-03-30T13:53:30.565Z,23.80
2019-03-30T13:55:57.249Z,24.05
2019-03-30T13:58:23.971Z,24.18
2019-03-30T14:00:50.651Z,24.18
2019-03-30T14:03:17.310Z,24.22
2019-03-30T14:05:43.954Z,24.27
2019-03-30T14:08:10.709Z,24.10
2019-03-30T14:10:39.004Z,24.01
2019-03-30T14:13:05.890Z,23.18
2019-03-30T14:15:32.555Z,22.96
2019-03-30T14:17:59.178Z,22.39
2019-03-30T14:20:26.073Z,22.48
2019-03-30T14:22:52.872Z,22.48
2019-03-30T14:25:19.503Z,22.67
2019-03-30T14:27:47.207Z,22.85
2019-03-30T14:30:14.444Z,23.24
2019-03-30T14:32:41.134Z,23.15
2019-03-30T14:35:07.856Z,22.87
2019-03-30T14:37:34.577Z,22.78
2019-03-30T14:40:01.165Z,22.38
2019-03-30T14:42:27.857Z,22.17
2019-03-30T14:44:54.523Z,22.40
2019-03-30T14:47:21.210Z,22.50
2019-03-30T14:49:47.852Z,22.64
2019-03-30T14:52:14.644Z,22.71
2019-03-30T14:54:52.012Z,22.58
2019-03-30T14:57:09.850Z,22.38
2019-03-30T14:59:36.519Z,22.32
2019-03-30T15:02:03.152Z,22.34
2019-03-30T15:04:29.798Z,22.58
2019-03-30T15:06:56.509Z,22.79
2019-03-30T15:09:23.116Z,22.82
2019-03-30T15:11:49.806Z,22.38
2019-03-30T15:14:16.512Z,22.08
2019-03-30T15:16:44.135Z,21.71
2019-03-30T15:19:10.793Z,21.57
2019-03-30T15:21:37.516Z,21.34
2019-03-30T15:24:04.360Z,21.16
2019-03-30T15:26:31.081Z,21.13
2019-03-30T15:28:57.857Z,21.10
2019-03-30T15:31:24.467Z,21.05
2019-03-30T15:33:53.325Z,21.25
2019-03-30T15:36:19.742Z,21.29
2019-03-30T15:38:46.472Z,21.16
2019-03-30T15:41:13.168Z,21.14
2019-03-30T15:43:39.919Z,21.20
2019-03-30T15:46:06.519Z,21.30
2019-03-30T15:48:33.187Z,21.38
2019-03-30T15:50:59.879Z,21.15
2019-03-30T15:53:26.512Z,20.63
2019-03-30T15:55:53.213Z,20.63
2019-03-30T15:58:19.972Z,20.40
2019-03-30T16:00:46.729Z,20.32
2019-03-30T16:03:13.390Z,20.28
2019-03-30T16:05:40.080Z,20.31
2019-03-30T16:08:06.684Z,20.29
2019-03-30T16:10:33.367Z,20.12
2019-03-30T16:13:00.074Z,20.15
2019-03-30T16:15:26.725Z,20.30
2019-03-30T16:17:53.362Z,20.21
2019-03-30T16:20:20.069Z,20.20
2019-03-30T16:22:46.703Z,20.16
2019-03-30T16:25:13.523Z,19.87
2019-03-30T16:27:40.261Z,19.68
2019-03-30T16:30:07.679Z,19.72
2019-03-30T16:32:34.301Z,19.63
2019-03-30T16:35:01.066Z,19.57
2019-03-30T16:37:27.652Z,19.51
2019-03-30T16:39:54.308Z,19.51
2019-03-30T16:42:21.026Z,19.48
2019-03-30T16:44:47.730Z,19.32
2019-03-30T16:47:14.430Z,19.27
2019-03-30T16:49:41.167Z,19.29
2019-03-30T16:52:07.841Z,19.27
2019-03-30T16:54:34.537Z,19.16
2019-03-30T16:57:01.226Z,19.14
2019-03-30T16:59:27.990Z,19.00
2019-03-30T17:01:54.700Z,18.83
2019-03-30T17:04:21.441Z,18.87
2019-03-30T17:06:48.052Z,18.84
2019-03-30T17:09:14.719Z,18.68
2019-03-30T17:11:41.426Z,18.71
2019-03-30T17:14:08.136Z,18.59
2019-03-30T17:16:36.757Z,18.64
2019-03-30T17:19:03.453Z,18.41
2019-03-30T17:21:30.074Z,18.46
2019-03-30T17:23:56.899Z,18.26
2019-03-30T17:26:23.516Z,18.25
2019-03-30T17:28:50.153Z,18.08
2019-03-30T17:31:16.932Z,17.98
2019-03-30T17:33:43.593Z,17.82
2019-03-30T17:36:10.252Z,17.69
2019-03-30T17:38:36.944Z,17.58
2019-03-30T17:41:03.691Z,17.45
2019-03-30T17:43:30.372Z,17.27
2019-03-30T17:45:57.097Z,17.09
2019-03-30T17:48:23.712Z,16.90
2019-03-30T17:50:50.461Z,16.75
2019-03-30T17:53:17.126Z,16.59
2019-03-30T17:55:43.839Z,16.45
2019-03-30T17:58:13.294Z,16.31
2019-03-30T18:00:39.132Z,16.21
2019-03-30T18:03:05.809Z,16.09
2019-03-30T18:05:33.473Z,15.96
2019-03-30T18:08:01.860Z,15.84
2019-03-30T18:10:28.582Z,15.66
2019-03-30T18:12:55.274Z,15.56
2019-03-30T18:15:21.939Z,15.44
2019-03-30T18:17:51.340Z,15.32
2019-03-30T18:20:17.984Z,15.23
2019-03-30T18:22:44.735Z,15.10
2019-03-30T18:25:11.960Z,15.01
2019-03-30T18:27:38.621Z,14.93
2019-03-30T18:30:06.411Z,14.81
2019-03-30T18:32:34.075Z,14.71
2019-03-30T18:35:02.021Z,14.60
2019-03-30T18:37:29.290Z,14.48
2019-03-30T18:39:55.890Z,14.36
2019-03-30T18:42:22.574Z,14.22
2019-03-30T18:44:50.571Z,14.16
2019-03-30T18:47:17.410Z,14.06
2019-03-30T18:49:44.160Z,13.93
2019-03-30T18:52:11.141Z,13.77
2019-03-30T18:54:39.352Z,13.68
2019-03-30T18:57:06.051Z,13.53
2019-03-30T18:59:32.776Z,13.43
2019-03-30T19:01:59.510Z,13.35
2019-03-30T19:04:26.123Z,13.30
2019-03-30T19:06:52.819Z,13.30
2019-03-30T19:09:19.515Z,13.19
2019-03-30T19:11:46.237Z,13.14
2019-03-30T19:14:12.959Z,13.08
2019-03-30T19:16:39.658Z,13.09
2019-03-30T19:19:06.273Z,12.97
2019-03-30T19:21:32.958Z,12.90
2019-03-30T19:23:59.727Z,12.82
2019-03-30T19:26:26.451Z,12.74
2019-03-30T19:28:56.563Z,12.59
2019-03-30T19:31:21.774Z,12.53
2019-03-30T19:33:48.471Z,12.47
2019-03-30T19:36:15.127Z,12.47
2019-03-30T19:38:41.861Z,12.30
2019-03-30T19:41:08.470Z,12.25
2019-03-30T19:43:35.205Z,12.15
2019-03-30T19:46:02.504Z,12.07
2019-03-30T19:48:30.019Z,12.01
2019-03-30T19:50:56.737Z,11.90
2019-03-30T19:53:23.479Z,11.88
2019-03-30T19:55:50.083Z,11.77
2019-03-30T19:58:16.794Z,11.73
2019-03-30T20:00:43.458Z,11.66
2019-03-30T20:03:10.148Z,11.66
2019-03-30T20:05:36.883Z,11.66
2019-03-30T20:08:12.037Z,11.43
2019-03-30T20:10:32.290Z,11.33
2019-03-30T20:12:59.855Z,11.32
2019-03-30T20:15:26.592Z,11.21
2019-03-30T20:17:53.209Z,11.19
2019-03-30T20:20:19.890Z,11.04
2019-03-30T20:22:46.586Z,10.96
2019-03-30T20:25:13.221Z,10.92
2019-03-30T20:27:39.869Z,11.01
2019-03-30T20:30:08.523Z,10.76
2019-03-30T20:32:35.134Z,10.75
2019-03-30T20:35:01.878Z,10.70
2019-03-30T20:37:28.564Z,10.64
2019-03-30T20:39:55.264Z,10.61
2019-03-30T20:42:22.062Z,10.51
2019-03-30T20:44:48.754Z,10.41
2019-03-30T20:47:15.586Z,10.41
2019-03-30T20:49:42.289Z,10.30
2019-03-30T20:52:09.025Z,10.28
2019-03-30T20:54:36.812Z,10.22
2019-03-30T20:57:03.544Z,10.22
2019-03-30T20:59:39.814Z,10.17
2019-03-30T21:01:58.812Z,10.11
2019-03-30T21:04:25.546Z,10.06
2019-03-30T21:06:54.797Z,9.94
2019-03-30T21:09:21.410Z,9.81
2019-03-30T21:11:48.166Z,9.77
2019-03-30T21:14:14.839Z,9.73
2019-03-30T21:16:41.577Z,9.76
2019-03-30T21:19:08.273Z,9.72
2019-03-30T21:21:34.972Z,9.65
2019-03-30T21:24:01.597Z,9.62
2019-03-30T21:26:28.721Z,9.52
2019-03-30T21:28:55.648Z,9.51
2019-03-30T21:31:22.356Z,9.50
2019-03-30T21:33:49.071Z,9.48
2019-03-30T21:36:15.828Z,9.40
2019-03-30T21:38:42.426Z,9.37
2019-03-30T21:41:09.110Z,9.30
2019-03-30T21:43:35.768Z,9.24
2019-03-30T21:46:02.418Z,9.20
2019-03-30T21:48:29.153Z,9.19
2019-03-30T21:50:55.874Z,9.30
2019-03-30T21:53:22.543Z,9.24
2019-03-30T21:55:50.307Z,9.13
2019-03-30T21:58:18.034Z,9.05
2019-03-30T22:00:44.624Z,8.90
2019-03-30T22:03:11.322Z,8.89
2019-03-30T22:05:37.920Z,8.87
2019-03-30T22:08:05.236Z,8.73
2019-03-30T22:10:31.960Z,8.71
2019-03-30T22:12:58.649Z,8.61
2019-03-30T22:15:26.604Z,8.58
2019-03-30T22:17:53.323Z,8.56
2019-03-30T22:20:21.418Z,8.52
2019-03-30T22:22:48.398Z,8.42
2019-03-30T22:25:16.228Z,8.39
2019-03-30T22:27:42.836Z,8.40
2019-03-30T22:30:23.656Z,8.33
2019-03-30T22:32:38.152Z,8.24
2019-03-30T22:35:05.003Z,8.11
2019-03-30T22:37:32.651Z,8.18
2019-03-30T22:39:59.351Z,8.15
2019-03-30T22:42:25.964Z,8.06
2019-03-30T22:44:52.682Z,8.02
2019-03-30T22:47:19.337Z,7.98
2019-03-30T22:49:46.044Z,7.89
2019-03-30T22:52:12.795Z,7.86
2019-03-30T22:54:40.492Z,7.82
2019-03-30T22:57:07.135Z,7.80
2019-03-30T22:59:33.822Z,7.72
2019-03-30T23:02:00.556Z,7.69
2019-03-30T23:04:27.203Z,7.67
2019-03-30T23:06:53.860Z,7.61
2019-03-30T23:09:20.544Z,7.52
2019-03-30T23:11:47.166Z,7.44
2019-03-30T23:14:13.827Z,7.41
2019-03-30T23:16:41.712Z,7.39
2019-03-30T23:19:08.354Z,7.36
2019-03-30T23:21:34.997Z,7.36
2019-03-30T23:24:01.705Z,7.28
2019-03-30T23:26:28.336Z,7.26
2019-03-30T23:28:59.299Z,7.22
2019-03-30T23:31:24.742Z,7.27
2019-03-30T23:33:51.356Z,7.17
2019-03-30T23:36:19.106Z,7.04
2019-03-30T23:38:46.776Z,7.02
2019-03-30T23:41:13.517Z,7.08
2019-03-30T23:43:40.246Z,7.01
2019-03-30T23:46:06.986Z,6.97
2019-03-30T23:48:33.602Z,6.89
2019-03-30T23:51:00.266Z,6.81
2019-03-30T23:53:27.004Z,6.79
2019-03-30T23:55:53.755Z,6.76
2019-03-30T23:58:20.449Z,6.67
